createdAt,value
2023-01-19T00:01:08.946Z,1.73
2023-01-19T00:03:37.185Z,2.55
2023-01-19T00:06:07.155Z,2.22
2023-01-19T00:11:03.978Z,1.73
2023-01-19T00:13:32.753Z,1.48
2023-01-19T00:16:02.364Z,2.10
2023-01-19T00:18:30.453Z,1.80
2023-01-19T00:20:58.701Z,1.73
2023-01-19T00:23:27.725Z,2.92
2023-01-19T00:25:55.770Z,2.03
2023-01-19T00:28:23.795Z,2.33
2023-01-19T00:30:52.373Z,2.20
2023-01-19T00:33:21.781Z,3.13
2023-01-19T00:35:53.048Z,2.80
2023-01-19T00:38:21.066Z,2.60
2023-01-19T00:40:49.427Z,2.80
2023-01-19T00:43:17.767Z,3.35
2023-01-19T00:45:47.057Z,2.90
2023-01-19T00:48:15.105Z,3.03
2023-01-19T00:50:44.628Z,4.63
2023-01-19T00:53:12.670Z,3.00
2023-01-19T00:55:40.799Z,3.42
2023-01-19T00:58:09.013Z,3.30
2023-01-19T01:00:37.309Z,3.67
2023-01-19T01:03:05.636Z,3.83
2023-01-19T01:05:33.777Z,3.25
2023-01-19T01:08:03.209Z,3.55
2023-01-19T01:10:31.402Z,4.20
2023-01-19T01:12:59.428Z,3.42
2023-01-19T01:15:50.946Z,3.92
2023-01-19T01:18:19.081Z,3.03
2023-01-19T01:20:47.137Z,3.65
2023-01-19T01:23:16.839Z,3.85
2023-01-19T01:25:46.771Z,3.10
2023-01-19T01:30:43.571Z,3.30
2023-01-19T01:33:13.405Z,3.33
2023-01-19T01:35:41.970Z,3.22
2023-01-19T01:38:11.326Z,2.92
2023-01-19T01:40:42.390Z,2.45
2023-01-19T01:43:13.100Z,2.88
2023-01-19T01:45:42.369Z,2.78
2023-01-19T01:48:16.237Z,2.47
2023-01-19T01:51:03.514Z,2.83
2023-01-19T01:53:34.697Z,2.65
2023-01-19T01:56:09.032Z,2.63
2023-01-19T01:58:41.499Z,2.50
2023-01-19T02:01:29.222Z,3.53
2023-01-19T02:03:58.917Z,2.75
2023-01-19T02:06:27.709Z,2.42
2023-01-19T02:09:18.099Z,2.20
2023-01-19T02:12:05.581Z,2.25
2023-01-19T02:14:33.736Z,2.53
2023-01-19T02:17:02.383Z,2.08
2023-01-19T02:19:38.355Z,1.92
2023-01-19T02:22:11.008Z,2.22
2023-01-19T02:24:40.582Z,2.38
2023-01-19T02:27:09.945Z,2.10
2023-01-19T02:29:38.193Z,2.10
2023-01-19T02:32:06.722Z,1.80
2023-01-19T02:34:34.963Z,1.70
2023-01-19T02:37:07.227Z,2.28
2023-01-19T02:39:39.442Z,2.15
2023-01-19T02:42:14.418Z,1.80
2023-01-19T02:44:47.266Z,2.30
2023-01-19T02:47:15.899Z,1.80
2023-01-19T02:49:44.067Z,1.48
2023-01-19T02:52:18.865Z,1.98
2023-01-19T02:55:00.246Z,1.30
2023-01-19T02:57:39.366Z,1.65
2023-01-19T03:00:18.653Z,2.30
2023-01-19T03:02:59.383Z,1.83
2023-01-19T03:05:35.327Z,2.20
2023-01-19T03:08:15.131Z,1.67
2023-01-19T03:10:52.870Z,1.98
2023-01-19T03:13:31.217Z,1.77
2023-01-19T03:16:06.144Z,2.30
2023-01-19T03:18:37.451Z,1.80
2023-01-19T03:21:08.365Z,1.80
2023-01-19T03:23:38.873Z,1.73
2023-01-19T03:26:11.360Z,1.83
2023-01-19T03:28:43.399Z,2.30
2023-01-19T03:31:16.323Z,2.15
2023-01-19T03:33:48.234Z,2.10
2023-01-19T03:36:21.916Z,1.90
2023-01-19T03:38:52.439Z,2.15
2023-01-19T03:41:23.429Z,1.90
2023-01-19T03:43:54.875Z,2.25
2023-01-19T03:46:24.972Z,2.70
2023-01-19T03:48:53.499Z,1.63
2023-01-19T03:51:22.971Z,1.83
2023-01-19T03:53:51.136Z,2.00
2023-01-19T03:56:28.899Z,1.65
2023-01-19T03:58:58.708Z,1.75
2023-01-19T04:01:27.026Z,2.17
2023-01-19T04:03:55.213Z,2.30
2023-01-19T04:06:23.724Z,2.25
2023-01-19T04:08:53.087Z,2.03
2023-01-19T04:11:26.829Z,1.65
2023-01-19T04:13:54.841Z,1.58
2023-01-19T04:16:24.276Z,1.70
2023-01-19T04:18:56.436Z,1.55
2023-01-19T04:21:24.520Z,1.63
2023-01-19T04:23:53.195Z,1.65
2023-01-19T04:26:22.549Z,2.22
2023-01-19T04:28:50.729Z,1.75
2023-01-19T04:31:19.375Z,1.98
2023-01-19T04:33:57.866Z,1.38
2023-01-19T04:36:25.952Z,1.65
2023-01-19T04:38:53.951Z,1.40
2023-01-19T04:41:22.416Z,1.50
2023-01-19T04:43:50.463Z,1.73
2023-01-19T04:46:18.590Z,2.25
2023-01-19T04:48:48.007Z,1.27
2023-01-19T04:51:15.988Z,1.40
2023-01-19T04:53:44.008Z,1.63
2023-01-19T04:56:12.555Z,1.70
2023-01-19T04:58:40.712Z,2.00
2023-01-19T05:01:09.777Z,2.00
2023-01-19T05:03:37.862Z,2.05
2023-01-19T05:06:07.936Z,1.80
2023-01-19T05:08:36.113Z,2.03
2023-01-19T05:11:04.218Z,1.92
2023-01-19T05:13:33.504Z,1.80
2023-01-19T05:16:02.146Z,1.90
2023-01-19T05:18:36.007Z,2.13
2023-01-19T05:21:04.160Z,2.63
2023-01-19T05:23:34.047Z,1.25
2023-01-19T05:26:02.969Z,2.05
2023-01-19T05:28:32.686Z,2.17
2023-01-19T05:31:01.086Z,2.67
2023-01-19T05:33:29.459Z,1.98
2023-01-19T05:35:57.560Z,2.03
2023-01-19T05:38:34.630Z,2.00
2023-01-19T05:41:04.927Z,2.20
2023-01-19T05:43:33.112Z,2.50
2023-01-19T05:46:01.221Z,1.60
2023-01-19T05:48:29.384Z,1.65
2023-01-19T05:51:01.546Z,1.98
2023-01-19T05:53:29.796Z,2.75
2023-01-19T05:56:01.544Z,1.80
2023-01-19T05:58:31.059Z,2.15
2023-01-19T06:01:03.147Z,1.95
2023-01-19T06:03:31.264Z,2.03
2023-01-19T06:05:59.472Z,1.55
2023-01-19T06:08:27.580Z,1.92
2023-01-19T06:10:55.620Z,1.45
2023-01-19T06:13:23.692Z,1.70
2023-01-19T06:15:59.408Z,1.60
2023-01-19T06:18:27.509Z,1.73
2023-01-19T06:20:58.947Z,1.88
2023-01-19T06:23:29.484Z,1.73
2023-01-19T06:25:58.124Z,2.08
2023-01-19T06:28:26.409Z,1.42
2023-01-19T06:30:56.691Z,2.42
2023-01-19T06:33:27.650Z,1.60
2023-01-19T06:35:55.789Z,1.83
2023-01-19T06:38:24.067Z,1.90
2023-01-19T06:40:58.716Z,3.65
2023-01-19T06:43:27.513Z,1.45
2023-01-19T06:45:56.242Z,1.48
2023-01-19T06:48:25.984Z,2.17
2023-01-19T06:50:54.153Z,2.28
2023-01-19T06:53:22.578Z,1.50
2023-01-19T06:55:50.710Z,1.70
2023-01-19T06:58:19.038Z,1.45
2023-01-19T07:00:47.244Z,1.40
2023-01-19T07:03:20.977Z,1.65
2023-01-19T07:05:52.870Z,2.20
2023-01-19T07:08:23.479Z,1.42
2023-01-19T07:11:25.651Z,1.55
2023-01-19T07:13:41.031Z,1.40
2023-01-19T07:16:10.936Z,1.88
2023-01-19T07:18:40.082Z,1.85
2023-01-19T07:21:10.283Z,2.42
2023-01-19T07:23:38.693Z,2.03
2023-01-19T07:26:07.649Z,1.80
2023-01-19T07:28:37.240Z,1.85
2023-01-19T07:31:07.032Z,1.92
2023-01-19T07:33:35.213Z,1.40
2023-01-19T07:36:03.400Z,2.00
2023-01-19T07:38:36.943Z,1.45
2023-01-19T07:41:06.740Z,1.63
2023-01-19T07:43:35.551Z,1.42
2023-01-19T07:46:05.513Z,1.92
2023-01-19T07:51:02.218Z,2.15
2023-01-19T07:53:30.714Z,2.05
2023-01-19T07:56:00.237Z,1.90
2023-01-19T07:58:28.736Z,2.10
2023-01-19T08:00:56.931Z,2.10
2023-01-19T08:03:25.147Z,1.80
2023-01-19T08:05:54.389Z,2.20
2023-01-19T08:08:22.524Z,2.05
2023-01-19T08:10:51.736Z,1.83
2023-01-19T08:13:21.177Z,2.10
2023-01-19T08:15:51.979Z,1.60
2023-01-19T08:18:20.595Z,1.98
2023-01-19T08:20:48.839Z,2.05
2023-01-19T08:23:18.304Z,2.05
2023-01-19T08:25:46.660Z,2.88
2023-01-19T08:28:16.913Z,2.47
2023-01-19T08:30:54.073Z,1.75
2023-01-19T08:33:23.246Z,2.55
2023-01-19T08:35:53.735Z,2.50
2023-01-19T08:38:22.964Z,2.05
2023-01-19T08:40:51.043Z,2.15
2023-01-19T08:43:19.573Z,1.70
2023-01-19T08:45:56.621Z,1.20
2023-01-19T08:48:25.528Z,1.88
2023-01-19T08:50:54.108Z,2.17
2023-01-19T08:53:24.027Z,1.90
2023-01-19T08:56:00.238Z,2.08
2023-01-19T08:58:28.783Z,1.83
2023-01-19T09:01:03.109Z,2.22
2023-01-19T09:03:49.355Z,2.90
2023-01-19T09:06:19.429Z,2.70
2023-01-19T09:11:33.416Z,2.10
2023-01-19T09:14:01.604Z,3.17
2023-01-19T09:16:31.509Z,2.50
2023-01-19T09:19:29.501Z,1.85
2023-01-19T09:22:04.527Z,1.77
2023-01-19T09:25:01.863Z,2.30
2023-01-19T09:27:30.699Z,2.17
2023-01-19T09:29:58.989Z,2.35
2023-01-19T09:32:33.673Z,2.83
2023-01-19T09:35:16.769Z,2.35
2023-01-19T09:37:47.517Z,2.30
2023-01-19T09:40:17.875Z,2.55
2023-01-19T09:42:50.086Z,2.40
2023-01-19T09:45:27.466Z,2.30
2023-01-19T09:47:59.111Z,2.00
2023-01-19T09:50:29.956Z,2.28
2023-01-19T09:53:05.317Z,2.03
2023-01-19T09:55:33.410Z,2.28
2023-01-19T09:58:01.749Z,2.17
2023-01-19T10:00:32.792Z,1.83
2023-01-19T10:03:16.785Z,2.50
2023-01-19T10:05:50.392Z,1.85
2023-01-19T10:08:25.318Z,1.42
2023-01-19T10:10:55.205Z,2.22
2023-01-19T10:13:31.512Z,2.22
2023-01-19T10:16:08.683Z,2.63
2023-01-19T10:18:47.890Z,2.42
2023-01-19T10:21:20.223Z,2.00
2023-01-19T10:23:53.650Z,1.85
2023-01-19T10:26:25.569Z,1.88
2023-01-19T10:28:58.777Z,1.63
2023-01-19T10:31:27.212Z,1.70
2023-01-19T10:33:56.916Z,2.00
2023-01-19T10:36:30.715Z,2.03
2023-01-19T10:38:59.549Z,1.75
2023-01-19T10:41:34.480Z,2.40
2023-01-19T10:44:03.712Z,2.45
2023-01-19T10:46:38.675Z,2.30
2023-01-19T10:49:08.748Z,2.03
2023-01-19T10:54:17.137Z,1.85
2023-01-19T10:56:51.895Z,1.98
2023-01-19T10:59:35.794Z,4.13
2023-01-19T11:02:15.601Z,2.35
2023-01-19T11:04:49.832Z,2.25
2023-01-19T11:07:22.314Z,2.03
2023-01-19T11:09:51.244Z,2.00
2023-01-19T11:12:21.628Z,2.08
2023-01-19T11:14:51.908Z,2.40
2023-01-19T11:17:25.791Z,2.22
2023-01-19T11:20:02.064Z,2.05
2023-01-19T11:22:33.161Z,1.77
2023-01-19T11:25:05.145Z,2.25
2023-01-19T11:27:36.071Z,1.95
2023-01-19T11:30:10.467Z,1.60
2023-01-19T11:32:38.747Z,1.65
2023-01-19T11:35:35.060Z,2.13
2023-01-19T11:38:18.317Z,1.85
2023-01-19T11:40:54.966Z,2.13
2023-01-19T11:43:24.799Z,2.72
2023-01-19T11:45:53.216Z,2.42
2023-01-19T11:48:28.427Z,2.00
2023-01-19T11:51:01.041Z,3.42
2023-01-19T11:53:34.148Z,2.38
2023-01-19T11:56:05.860Z,1.45
2023-01-19T11:58:39.059Z,1.85
2023-01-19T12:01:14.488Z,1.73
2023-01-19T12:03:45.971Z,1.30
2023-01-19T12:06:20.254Z,1.10
2023-01-19T12:08:52.243Z,1.88
2023-01-19T12:11:24.518Z,1.65
2023-01-19T12:13:54.901Z,1.40
2023-01-19T12:16:24.622Z,1.00
2023-01-19T12:18:57.332Z,1.50
2023-01-19T12:21:26.787Z,1.23
2023-01-19T12:24:06.391Z,1.27
2023-01-19T12:26:38.247Z,1.27
2023-01-19T12:29:12.885Z,1.20
2023-01-19T12:31:43.109Z,1.10
2023-01-19T12:34:41.179Z,1.08
2023-01-19T12:37:40.134Z,0.93
2023-01-19T12:40:27.668Z,1.05
2023-01-19T12:43:00.552Z,0.95
2023-01-19T12:45:33.582Z,1.42
2023-01-19T12:48:05.290Z,1.17
2023-01-19T12:50:38.640Z,0.82
2023-01-19T12:53:20.679Z,1.02
2023-01-19T12:56:00.188Z,1.02
2023-01-19T12:58:28.685Z,0.85
2023-01-19T13:01:16.803Z,1.02
2023-01-19T13:03:58.862Z,1.13
2023-01-19T13:07:04.885Z,0.90
2023-01-19T13:09:36.211Z,0.70
2023-01-19T13:12:24.786Z,1.02
2023-01-19T13:15:13.305Z,1.30
2023-01-19T13:17:51.854Z,1.00
2023-01-19T13:20:27.365Z,1.23
2023-01-19T13:23:21.425Z,1.67
2023-01-19T13:25:54.859Z,1.10
2023-01-19T13:28:34.180Z,1.27
2023-01-19T13:31:05.215Z,1.20
2023-01-19T13:33:41.258Z,1.60
2023-01-19T13:36:20.775Z,1.75
2023-01-19T13:38:50.282Z,1.58
2023-01-19T13:41:24.224Z,1.33
2023-01-19T13:44:00.079Z,1.33
2023-01-19T13:46:29.786Z,1.10
2023-01-19T13:49:01.310Z,1.10
2023-01-19T13:51:29.723Z,1.20
2023-01-19T13:53:59.142Z,1.80
2023-01-19T13:56:29.340Z,1.20
2023-01-19T14:01:35.532Z,1.05
2023-01-19T14:04:03.998Z,0.90
2023-01-19T14:06:46.649Z,0.85
2023-01-19T14:09:18.454Z,1.00
2023-01-19T14:11:49.738Z,1.10
2023-01-19T14:14:29.988Z,0.82
2023-01-19T14:19:26.200Z,1.00
2023-01-19T14:22:03.090Z,1.23
2023-01-19T14:24:33.408Z,1.15
2023-01-19T14:27:20.663Z,0.82
2023-01-19T14:29:50.780Z,0.90
2023-01-19T14:32:21.013Z,0.93
2023-01-19T14:37:21.744Z,0.60
2023-01-19T14:39:52.047Z,0.90
2023-01-19T14:42:32.184Z,1.10
2023-01-19T14:45:03.607Z,1.05
2023-01-19T14:47:39.490Z,0.93
2023-01-19T14:50:20.709Z,0.93
2023-01-19T14:52:56.160Z,1.00
2023-01-19T14:55:27.521Z,1.25
2023-01-19T14:57:57.120Z,1.35
2023-01-19T15:00:27.187Z,1.00
2023-01-19T15:02:55.603Z,0.95
2023-01-19T15:05:24.538Z,1.48
2023-01-19T15:07:53.388Z,1.40
2023-01-19T15:10:37.602Z,1.00
2023-01-19T15:13:07.457Z,1.33
2023-01-19T15:15:36.899Z,1.20
2023-01-19T15:18:08.045Z,0.95
2023-01-19T15:20:36.394Z,1.77
2023-01-19T15:23:04.896Z,1.08
2023-01-19T15:25:33.183Z,0.90
2023-01-19T15:28:01.699Z,1.00
2023-01-19T15:30:33.537Z,1.00
2023-01-19T15:33:02.087Z,1.08
2023-01-19T15:35:30.177Z,1.00
2023-01-19T15:37:58.404Z,1.15
2023-01-19T15:40:26.489Z,1.20
2023-01-19T15:42:54.631Z,1.55
2023-01-19T15:45:35.279Z,1.58
2023-01-19T15:48:05.186Z,1.70
2023-01-19T15:50:33.810Z,2.33
2023-01-19T15:53:05.038Z,2.47
2023-01-19T15:55:33.267Z,2.70
2023-01-19T15:58:02.594Z,2.80
2023-01-19T16:00:33.405Z,3.10
2023-01-19T16:03:03.408Z,3.03
2023-01-19T16:05:42.473Z,2.63
2023-01-19T16:08:12.319Z,2.47
2023-01-19T16:10:40.939Z,2.13
2023-01-19T16:13:09.616Z,2.20
2023-01-19T16:15:40.537Z,2.35
2023-01-19T16:18:08.932Z,2.33
2023-01-19T16:20:37.223Z,2.58
2023-01-19T16:23:20.611Z,2.55
2023-01-19T16:25:57.055Z,2.35
2023-01-19T16:28:25.476Z,4.53
2023-01-19T16:30:55.582Z,3.40
2023-01-19T16:33:23.781Z,2.47
2023-01-19T16:35:52.038Z,3.03
2023-01-19T16:38:20.451Z,2.88
2023-01-19T16:40:48.576Z,3.83
2023-01-19T16:43:18.366Z,4.15
2023-01-19T16:46:02.936Z,3.22
2023-01-19T16:48:32.359Z,4.70
2023-01-19T16:51:03.626Z,4.53
2023-01-19T16:53:34.520Z,3.58
2023-01-19T16:56:08.533Z,4.55
2023-01-19T16:58:38.589Z,6.00
2023-01-19T17:01:14.854Z,10.13
2023-01-19T17:03:43.584Z,7.30
2023-01-19T17:06:14.743Z,6.03
2023-01-19T17:08:42.882Z,4.75
2023-01-19T17:11:13.429Z,4.35
2023-01-19T17:13:41.671Z,4.53
2023-01-19T17:16:12.470Z,7.45
2023-01-19T17:18:40.581Z,5.32
2023-01-19T17:21:10.906Z,4.65
2023-01-19T17:23:43.999Z,6.03
2023-01-19T17:26:12.815Z,6.97
2023-01-19T17:28:41.699Z,5.78
2023-01-19T17:31:13.203Z,6.72
2023-01-19T17:33:42.059Z,6.35
2023-01-19T17:36:12.859Z,5.80
2023-01-19T17:38:42.143Z,11.23
2023-01-19T17:41:15.149Z,8.90
2023-01-19T17:43:43.661Z,9.52
2023-01-19T17:46:13.812Z,10.02
2023-01-19T17:51:12.400Z,8.20
2023-01-19T17:53:42.283Z,8.77
2023-01-19T17:56:12.886Z,8.18
2023-01-19T17:58:41.932Z,5.93
2023-01-19T18:01:13.877Z,4.15
2023-01-19T18:03:42.960Z,3.72
2023-01-19T18:06:11.633Z,4.70
2023-01-19T18:08:40.470Z,5.85
2023-01-19T18:11:09.064Z,4.03
2023-01-19T18:13:38.658Z,4.50
2023-01-19T18:16:10.790Z,5.57
2023-01-19T18:18:41.973Z,9.20
2023-01-19T18:21:12.300Z,8.13
2023-01-19T18:23:41.000Z,10.00
2023-01-19T18:26:11.570Z,7.78
2023-01-19T18:28:39.762Z,8.30
2023-01-19T18:31:09.310Z,10.23
2023-01-19T18:33:37.649Z,9.02
2023-01-19T18:36:08.598Z,10.98
2023-01-19T18:38:36.993Z,6.03
2023-01-19T18:41:07.372Z,7.90
2023-01-19T18:43:35.892Z,8.35
2023-01-19T18:46:05.010Z,12.18
2023-01-19T18:48:33.306Z,12.03
2023-01-19T18:51:03.430Z,6.82
2023-01-19T18:58:32.670Z,3.22
2023-01-19T19:01:02.124Z,4.15
2023-01-19T19:03:30.483Z,3.63
2023-01-19T19:06:04.345Z,4.63
2023-01-19T19:08:35.532Z,4.68
2023-01-19T19:11:03.691Z,5.95
2023-01-19T19:13:31.768Z,6.13
2023-01-19T19:16:04.553Z,6.38
2023-01-19T19:18:32.771Z,6.05
2023-01-19T19:21:00.839Z,6.28
2023-01-19T19:23:29.011Z,5.85
2023-01-19T19:26:02.938Z,7.55
2023-01-19T19:28:31.045Z,5.60
2023-01-19T19:31:07.027Z,5.53
2023-01-19T19:33:35.776Z,3.72
2023-01-19T19:36:04.592Z,4.82
2023-01-19T19:38:32.911Z,5.03
2023-01-19T19:41:06.239Z,4.20
2023-01-19T19:43:36.563Z,7.65
2023-01-19T19:46:06.465Z,8.38
2023-01-19T19:48:36.673Z,10.68
2023-01-19T19:51:17.720Z,10.38
2023-01-19T19:53:48.927Z,11.75
2023-01-19T19:56:22.102Z,9.07
2023-01-19T19:58:51.429Z,8.52
2023-01-19T20:01:24.017Z,10.63
2023-01-19T20:03:53.590Z,9.80
2023-01-19T20:06:24.498Z,11.23
2023-01-19T20:08:54.063Z,4.15
2023-01-19T20:11:27.119Z,4.35
2023-01-19T20:13:56.628Z,3.95
2023-01-19T20:16:25.714Z,4.20
2023-01-19T20:18:55.338Z,4.28
2023-01-19T20:21:25.511Z,4.43
2023-01-19T20:26:26.588Z,3.83
2023-01-19T20:28:55.487Z,4.90
2023-01-19T20:31:26.621Z,5.47
2023-01-19T20:33:56.785Z,5.82
2023-01-19T20:38:54.695Z,5.05
2023-01-19T20:41:24.985Z,4.75
2023-01-19T20:43:54.226Z,5.40
2023-01-19T20:46:24.168Z,4.53
2023-01-19T20:48:54.693Z,4.47
2023-01-19T20:51:25.296Z,3.75
2023-01-19T20:53:53.836Z,5.07
2023-01-19T20:56:23.385Z,4.05
2023-01-19T20:58:54.764Z,4.95
2023-01-19T21:01:25.551Z,5.45
2023-01-19T21:03:54.123Z,3.83
2023-01-19T21:06:23.146Z,4.78
2023-01-19T21:08:51.407Z,4.07
2023-01-19T21:11:21.416Z,4.82
2023-01-19T21:16:19.676Z,4.82
2023-01-19T21:18:47.769Z,4.38
2023-01-19T21:21:29.383Z,5.47
2023-01-19T21:23:59.830Z,5.40
2023-01-19T21:26:29.978Z,4.82
2023-01-19T21:29:00.239Z,6.72
2023-01-19T21:31:28.633Z,6.78
2023-01-19T21:33:57.828Z,5.63
2023-01-19T21:36:26.650Z,5.70
2023-01-19T21:39:00.510Z,5.10
2023-01-19T21:41:30.092Z,6.20
2023-01-19T21:44:01.545Z,4.45
2023-01-19T21:46:30.637Z,5.05
2023-01-19T21:49:00.105Z,2.80
2023-01-19T21:51:29.104Z,4.78
2023-01-19T21:53:59.753Z,2.77
2023-01-19T21:56:29.049Z,3.58
2023-01-19T21:59:02.282Z,3.88
2023-01-19T22:01:30.970Z,4.32
2023-01-19T22:04:00.009Z,4.60
2023-01-19T22:06:29.247Z,5.07
2023-01-19T22:09:00.800Z,5.43
2023-01-19T22:11:39.241Z,5.10
2023-01-19T22:14:08.894Z,4.38
2023-01-19T22:16:37.313Z,4.70
2023-01-19T22:19:07.789Z,4.35
2023-01-19T22:21:36.933Z,4.30
2023-01-19T22:24:06.629Z,4.20
2023-01-19T22:26:35.359Z,4.95
2023-01-19T22:29:04.297Z,4.05
2023-01-19T22:31:34.109Z,4.95
2023-01-19T22:36:34.041Z,5.30
2023-01-19T22:39:03.805Z,4.90
2023-01-19T22:41:33.835Z,5.93
2023-01-19T22:44:03.977Z,4.78
2023-01-19T22:46:35.877Z,5.53
2023-01-19T22:49:04.731Z,5.63
2023-01-19T22:51:33.819Z,5.00
2023-01-19T22:54:03.961Z,4.87
2023-01-19T22:56:33.884Z,5.65
2023-01-19T22:59:02.767Z,5.72
2023-01-19T23:01:33.747Z,5.38
2023-01-19T23:04:05.036Z,6.07
2023-01-19T23:06:40.003Z,5.80
2023-01-19T23:09:11.923Z,5.47
2023-01-19T23:11:41.823Z,5.72
2023-01-19T23:14:13.484Z,5.70
2023-01-19T23:16:41.869Z,6.50
2023-01-19T23:19:13.325Z,7.57
2023-01-19T23:21:42.310Z,6.40
2023-01-19T23:24:12.284Z,7.32
2023-01-19T23:29:11.029Z,6.72
2023-01-19T23:31:40.923Z,7.38
2023-01-19T23:34:12.450Z,8.35
2023-01-19T23:36:41.969Z,9.30
2023-01-19T23:39:14.608Z,9.60
2023-01-19T23:41:42.877Z,9.88
2023-01-19T23:44:11.187Z,10.20
2023-01-19T23:46:39.732Z,9.77
2023-01-19T23:49:07.975Z,11.80
2023-01-19T23:51:37.465Z,12.05
2023-01-19T23:54:05.780Z,11.38
2023-01-19T23:56:35.603Z,10.27
2023-01-19T23:59:05.996Z,12.35
